Time;durP1;ratioP1;P1;durP2;ratioP2;P2;SDS_P1;SDS_P2;PMS_P1;PMS_P2;Temp;Humidity;BMP_temperature;BMP_pressure;BME280_temperature;BME280_humidity;BME280_pressure;Samples;Min_cycle;Max_cycle;Signal;HPM_P1;HPM_P2
2023/09/27 00:01:59;;;;;;;15.40;13.80;;;;;;;12.66;100.00;101918.41;6161250;23;20465;-68
2023/09/27 00:04:24;;;;;;;15.38;13.98;;;;;;;12.73;100.00;101920.13;6161690;23;20004;-68
2023/09/27 00:06:50;;;;;;;13.95;12.65;;;;;;;12.62;100.00;101921.91;6161180;23;20004;-69
2023/09/27 00:09:15;;;;;;;14.57;13.32;;;;;;;12.59;100.00;101928.06;6161741;23;20013;-69
2023/09/27 00:11:41;;;;;;;15.75;14.25;;;;;;;12.38;100.00;101928.97;6185543;23;20150;-69
2023/09/27 00:14:07;;;;;;;16.40;14.65;;;;;;;12.38;100.00;101939.47;6186087;23;20015;-69
2023/09/27 00:16:33;;;;;;;17.20;15.45;;;;;;;12.44;100.00;101943.84;6160346;23;20495;-69
2023/09/27 00:18:58;;;;;;;16.75;15.15;;;;;;;12.36;100.00;101946.50;6161362;23;20091;-68
2023/09/27 00:21:24;;;;;;;16.83;15.30;;;;;;;12.39;100.00;101937.75;6160157;23;20005;-69
2023/09/27 00:23:49;;;;;;;18.52;16.30;;;;;;;12.37;100.00;101936.84;6159626;23;20032;-68
2023/09/27 00:26:14;;;;;;;17.40;15.73;;;;;;;12.22;100.00;101937.75;6159899;23;20013;-68
2023/09/27 00:28:40;;;;;;;19.02;17.23;;;;;;;12.25;100.00;101943.00;6187596;23;20012;-68
2023/09/27 00:31:05;;;;;;;17.15;15.48;;;;;;;12.23;100.00;101935.13;6211813;23;20009;-68
2023/09/27 00:33:31;;;;;;;16.63;14.23;;;;;;;12.12;100.00;101940.41;6188244;23;20019;-69
2023/09/27 00:35:56;;;;;;;16.92;15.32;;;;;;;12.02;100.00;101937.78;6162876;23;20023;-68
2023/09/27 00:38:22;;;;;;;17.33;15.70;;;;;;;11.99;100.00;101935.16;6162689;23;20342;-68
2023/09/27 00:40:47;;;;;;;18.77;16.92;;;;;;;11.97;100.00;101935.16;6162910;23;20066;-68
2023/09/27 00:43:30;;;;;;;18.00;16.33;;;;;;;12.05;100.00;101935.13;6188536;23;19997;-69
2023/09/27 00:46:06;;;;;;;20.42;18.67;;;;;;;12.01;100.00;101938.63;6187406;23;20004;-69
2023/09/27 00:48:34;;;;;;;19.45;17.58;;;;;;;11.93;100.00;101941.25;6187680;23;20004;-69
2023/09/27 00:51:00;;;;;;;22.10;20.05;;;;;;;11.90;100.00;101938.63;6188066;23;20095;-68
2023/09/27 00:53:30;;;;;;;20.02;18.33;;;;;;;11.79;100.00;101934.25;6163369;23;20016;-69
2023/09/27 00:55:56;;;;;;;18.75;16.80;;;;;;;11.74;100.00;101927.25;6187606;23;20004;-69
2023/09/27 00:58:23;;;;;;;21.40;19.20;;;;;;;11.78;100.00;101937.75;6188077;23;20032;-69
2023/09/27 01:00:50;;;;;;;21.25;19.35;;;;;;;11.85;100.00;101933.38;6162250;23;20027;-69
2023/09/27 01:03:16;;;;;;;19.25;17.48;;;;;;;11.75;100.00;101919.38;6187615;23;20115;-69
2023/09/27 01:05:43;;;;;;;19.33;17.63;;;;;;;11.75;100.00;101915.84;6162837;23;20542;-69
2023/09/27 01:08:09;;;;;;;18.95;17.15;;;;;;;11.82;100.00;101927.22;6187913;23;20012;-68
2023/09/27 01:10:35;;;;;;;18.25;16.65;;;;;;;11.76;100.00;101928.09;6187456;23;20005;-68
2023/09/27 01:13:02;;;;;;;18.88;17.23;;;;;;;11.83;100.00;101924.59;6162702;23;20020;-68
2023/09/27 01:15:27;;;;;;;20.20;17.88;;;;;;;11.77;100.00;101920.22;6187131;23;20013;-68
2023/09/27 01:17:54;;;;;;;20.20;18.50;;;;;;;11.93;100.00;101910.63;6163165;23;20371;-69
2023/09/27 01:20:20;;;;;;;20.08;18.08;;;;;;;11.93;100.00;101913.25;6187954;23;20347;-68
2023/09/27 01:22:57;;;;;;;20.40;18.63;;;;;;;11.99;100.00;101922.03;6163130;23;20406;-69
2023/09/27 01:25:48;;;;;;;18.55;16.75;;;;;;;11.98;100.00;101921.13;6187127;23;20009;-69
2023/09/27 01:28:14;;;;;;;20.58;18.48;;;;;;;11.89;100.00;101913.22;6187584;23;20000;-68
2023/09/27 01:30:39;;;;;;;19.20;17.20;;;;;;;11.82;100.00;101912.34;6187037;23;20009;-68
2023/09/27 01:33:07;;;;;;;19.13;17.20;;;;;;;11.80;100.00;101908.84;6187928;23;20088;-69
2023/09/27 01:35:41;;;;;;;19.05;17.25;;;;;;;11.84;100.00;101899.22;6187073;23;20004;-69
2023/09/27 01:38:08;;;;;;;20.65;18.42;;;;;;;11.75;100.00;101890.47;6187071;23;20016;-69
2023/09/27 01:40:40;;;;;;;18.80;16.92;;;;;;;11.81;100.00;101881.72;6187061;23;20009;-69
2023/09/27 01:43:05;;;;;;;19.13;17.33;;;;;;;11.81;100.00;101879.09;6187714;23;20059;-69
2023/09/27 01:45:32;;;;;;;19.00;17.30;;;;;;;11.86;100.00;101869.44;6186548;23;20008;-69
2023/09/27 01:47:58;;;;;;;20.15;18.30;;;;;;;12.02;100.00;101877.34;6212137;23;20004;-69
2023/09/27 01:50:25;;;;;;;20.15;18.27;;;;;;;12.08;100.00;101875.59;6161719;23;20113;-68
2023/09/27 01:52:55;;;;;;;18.67;17.00;;;;;;;12.01;100.00;101876.50;6162680;23;20013;-69
2023/09/27 01:55:21;;;;;;;18.95;17.25;;;;;;;11.94;100.00;101880.00;6187465;23;20091;-69
2023/09/27 01:57:46;;;;;;;15.82;14.32;;;;;;;11.88;100.00;101880.84;6213626;23;20035;-68
2023/09/27 02:00:17;;;;;;;19.77;17.77;;;;;;;12.15;100.00;101888.72;6161483;23;20008;-69
2023/09/27 02:02:44;;;;;;;16.40;15.10;;;;;;;11.98;100.00;101892.22;6186947;23;20009;-68
2023/09/27 02:05:10;;;;;;;16.23;14.60;;;;;;;11.88;100.00;101887.81;6187088;23;20005;-69
2023/09/27 02:07:39;;;;;;;18.30;14.32;;;;;;;11.76;100.00;101897.47;6187332;23;20503;-69
2023/09/27 02:10:09;;;;;;;14.90;13.50;;;;;;;11.79;100.00;101893.97;6187179;23;20009;-69
2023/09/27 02:12:39;;;;;;;14.43;13.18;;;;;;;11.48;100.00;101879.94;6186749;23;20000;-68
2023/09/27 02:15:09;;;;;;;12.60;11.40;;;;;;;11.39;100.00;101879.06;6162223;23;20054;-69
2023/09/27 02:17:35;;;;;;;13.27;11.88;;;;;;;11.29;100.00;101879.03;6186815;23;20016;-68
2023/09/27 02:20:07;;;;;;;13.70;12.50;;;;;;;11.33;100.00;101896.53;6162012;23;20039;-68
2023/09/27 02:22:37;;;;;;;16.55;14.18;;;;;;;11.29;100.00;101885.16;6187106;23;20319;-68
2023/09/27 02:25:05;;;;;;;15.73;14.25;;;;;;;11.29;100.00;101890.41;6187079;23;20399;-68
2023/09/27 02:27:31;;;;;;;15.35;13.93;;;;;;;11.35;100.00;101881.66;6185984;23;20004;-68
2023/09/27 02:29:59;;;;;;;15.93;14.50;;;;;;;11.38;100.00;101886.94;6186937;23;20445;-68
2023/09/27 02:32:25;;;;;;;12.90;11.52;;;;;;;11.31;100.00;101899.16;6162022;23;20032;-68
2023/09/27 02:34:51;;;;;;;14.73;13.32;;;;;;;11.26;100.00;101895.66;6186603;23;20170;-69
2023/09/27 02:37:16;;;;;;;14.52;13.05;;;;;;;11.19;100.00;101878.13;6186698;23;20004;-68
2023/09/27 02:39:43;;;;;;;14.90;13.57;;;;;;;11.03;100.00;101878.13;6162245;23;20095;-69
2023/09/27 02:42:12;;;;;;;13.63;12.32;;;;;;;11.04;100.00;101892.97;6186391;23;20320;-69
2023/09/27 02:44:37;;;;;;;14.30;12.95;;;;;;;11.17;100.00;101895.63;6186102;23;20047;-68
2023/09/27 02:47:04;;;;;;;14.93;13.52;;;;;;;11.05;100.00;101891.25;6162016;23;20343;-68
2023/09/27 02:49:29;;;;;;;15.20;13.63;;;;;;;10.87;100.00;101879.78;6162386;23;20098;-69
2023/09/27 02:51:55;;;;;;;14.07;12.50;;;;;;;11.00;100.00;101887.72;6186906;23;20434;-69
2023/09/27 02:54:21;;;;;;;14.15;12.75;;;;;;;11.05;100.00;101896.50;6162401;23;20320;-69
2023/09/27 02:56:47;;;;;;;16.67;15.18;;;;;;;11.02;100.00;101892.09;6185728;23;20008;-69
2023/09/27 02:59:13;;;;;;;20.65;18.50;;;;;;;11.04;100.00;101890.34;6186763;23;20028;-69
2023/09/27 03:01:40;;;;;;;15.90;14.25;;;;;;;11.00;100.00;101888.56;6160479;23;20115;-69
2023/09/27 03:04:10;;;;;;;13.98;12.57;;;;;;;10.89;100.00;101885.06;6162593;23;20000;-69
2023/09/27 03:06:39;;;;;;;15.90;14.32;;;;;;;10.96;100.00;101889.47;6186191;23;20012;-68
2023/09/27 03:09:05;;;;;;;16.38;14.77;;;;;;;10.94;100.00;101885.94;6161653;23;20011;-68
2023/09/27 03:11:31;;;;;;;16.13;14.77;;;;;;;10.84;100.00;101886.78;6186145;23;20001;-69
2023/09/27 03:13:56;;;;;;;15.40;14.05;;;;;;;10.85;100.00;101883.31;6161533;23;20009;-69
2023/09/27 03:16:22;;;;;;;13.68;12.40;;;;;;;10.87;100.00;101886.78;6185625;23;20008;-68
2023/09/27 03:18:48;;;;;;;13.32;12.13;;;;;;;10.86;100.00;101890.28;6162462;23;20062;-69
2023/09/27 03:21:13;;;;;;;14.40;12.98;;;;;;;10.84;100.00;101878.91;6186424;23;20021;-68
2023/09/27 03:23:39;;;;;;;14.10;12.73;;;;;;;10.82;100.00;101883.25;6162352;23;20035;-68
2023/09/27 03:26:04;;;;;;;15.43;14.13;;;;;;;10.88;100.00;101884.19;6186179;23;20028;-68
2023/09/27 03:28:30;;;;;;;15.55;14.15;;;;;;;10.86;100.00;101888.56;6162364;23;20407;-68
2023/09/27 03:30:56;;;;;;;16.35;14.85;;;;;;;11.01;100.00;101885.09;6161081;23;20016;-68
2023/09/27 03:33:21;;;;;;;17.00;15.50;;;;;;;11.04;100.00;101892.97;6162004;23;20012;-68
2023/09/27 03:35:47;;;;;;;19.98;18.05;;;;;;;10.98;100.00;101894.72;6161954;23;20009;-69
2023/09/27 03:38:12;;;;;;;18.20;16.65;;;;;;;10.91;100.00;101906.91;6162502;23;20285;-69
2023/09/27 03:40:41;;;;;;;17.23;15.73;;;;;;;10.81;100.00;101913.00;6186119;23;20015;-68
2023/09/27 03:43:06;;;;;;;19.60;17.80;;;;;;;10.87;100.00;101908.63;6162105;23;20079;-69
2023/09/27 03:45:35;;;;;;;20.08;18.33;;;;;;;10.84;100.00;101913.00;6160235;23;20024;-69
2023/09/27 03:48:02;;;;;;;19.00;17.30;;;;;;;10.70;100.00;101905.97;6185579;23;20012;-69
2023/09/27 03:50:28;;;;;;;17.58;15.90;;;;;;;10.78;100.00;101913.00;6210287;23;20004;-68
2023/09/27 03:52:58;;;;;;;16.48;14.98;;;;;;;10.65;100.00;101912.91;6161305;23;20016;-68
2023/09/27 03:55:24;;;;;;;15.50;13.93;;;;;;;10.62;100.00;101919.91;6161744;23;20035;-68
2023/09/27 03:57:49;;;;;;;16.25;14.75;;;;;;;10.61;100.00;101916.38;6183254;23;20343;-69
2023/09/27 04:00:17;;;;;;;14.40;13.05;;;;;;;10.58;100.00;101916.38;6160782;23;20462;-68
2023/09/27 04:02:43;;;;;;;30.10;16.50;;;;;;;10.51;100.00;101910.22;6163144;23;20000;-69
2023/09/27 04:05:11;;;;;;;28.48;13.85;;;;;;;10.38;100.00;101908.41;6187746;23;20007;-69
2023/09/27 04:07:37;;;;;;;14.88;13.23;;;;;;;10.23;100.00;101915.25;6187725;23;20012;-69
2023/09/27 04:10:03;;;;;;;15.85;14.32;;;;;;;10.43;100.00;101916.28;6162495;23;20296;-69
2023/09/27 04:12:29;;;;;;;16.98;15.25;;;;;;;10.36;100.00;101920.63;6162816;23;20008;-69
2023/09/27 04:14:54;;;;;;;15.35;13.95;;;;;;;10.36;100.00;101918.88;6187200;23;20011;-69
2023/09/27 04:17:20;;;;;;;14.23;12.85;;;;;;;10.36;100.00;101931.09;6162310;23;20020;-68
2023/09/27 04:19:45;;;;;;;14.18;12.90;;;;;;;10.41;100.00;101939.84;6162987;23;20012;-69
2023/09/27 04:22:10;;;;;;;13.55;12.15;;;;;;;10.36;100.00;101939.84;6162036;23;20012;-68
2023/09/27 04:24:36;;;;;;;13.35;12.10;;;;;;;10.34;100.00;101941.59;6163409;23;20327;-68
2023/09/27 04:27:03;;;;;;;13.65;12.45;;;;;;;10.30;100.00;101936.25;6187391;23;20407;-68
2023/09/27 04:29:29;;;;;;;727.35;62.17;;;;;;;10.08;100.00;101930.84;6162611;23;20070;-69
2023/09/27 04:31:55;;;;;;;17.02;15.27;;;;;;;10.22;100.00;101917.88;6163160;23;20008;-69
2023/09/27 04:34:20;;;;;;;18.52;16.75;;;;;;;10.27;100.00;101926.66;6161399;23;20013;-69
2023/09/27 04:36:47;;;;;;;20.30;18.40;;;;;;;10.37;100.00;101938.97;6161528;23;20024;-69
2023/09/27 04:39:16;;;;;;;18.77;17.00;;;;;;;10.27;100.00;101947.59;6162524;23;20012;-68
2023/09/27 04:41:43;;;;;;;19.52;17.58;;;;;;;10.35;100.00;101945.06;6162519;23;20011;-68
2023/09/27 04:44:08;;;;;;;17.00;15.35;;;;;;;10.31;100.00;101949.34;6163456;23;20408;-69
2023/09/27 04:46:35;;;;;;;18.40;16.52;;;;;;;10.24;100.00;101947.56;6162405;23;20015;-68
2023/09/27 04:49:02;;;;;;;14.55;13.25;;;;;;;10.22;100.00;101947.56;6213118;23;20009;-68
2023/09/27 04:51:29;;;;;;;15.13;12.52;;;;;;;10.19;100.00;101955.38;6185718;23;20009;-68
2023/09/27 04:54:00;;;;;;;13.30;12.00;;;;;;;10.14;100.00;101962.34;6162906;23;20009;-68
2023/09/27 04:56:29;;;;;;;11.27;10.27;;;;;;;10.00;100.00;101951.75;6186498;23;20031;-68
2023/09/27 04:59:01;;;;;;;107.90;18.85;;;;;;;9.92;100.00;101934.22;6187816;23;20047;-68
2023/09/27 05:01:26;;;;;;;15.27;13.20;;;;;;;9.73;100.00;101912.25;6187326;23;20039;-68
2023/09/27 05:03:52;;;;;;;16.80;14.98;;;;;;;9.70;100.00;101907.88;6161183;23;20008;-68
2023/09/27 05:06:17;;;;;;;16.65;14.93;;;;;;;9.88;100.00;101922.84;6186829;23;20061;-68
2023/09/27 05:08:43;;;;;;;18.80;16.90;;;;;;;10.03;100.00;101936.06;6161610;23;20005;-68
2023/09/27 05:11:08;;;;;;;17.15;15.52;;;;;;;10.03;100.00;101938.69;6162471;23;20009;-68
2023/09/27 05:13:33;;;;;;;17.55;15.82;;;;;;;9.91;100.00;101928.09;6187429;23;20098;-67
2023/09/27 05:15:59;;;;;;;53.95;19.45;;;;;;;9.71;100.00;101927.91;6186390;23;20012;-68
2023/09/27 05:18:25;;;;;;;19.30;17.35;;;;;;;9.86;100.00;101927.19;6162483;23;20424;-68
2023/09/27 05:20:50;;;;;;;16.83;15.43;;;;;;;9.87;100.00;101927.22;6187356;23;20020;-68
2023/09/27 05:23:16;;;;;;;18.92;17.20;;;;;;;9.84;100.00;101924.56;6162977;23;20380;-68
2023/09/27 05:25:41;;;;;;;19.90;18.02;;;;;;;9.87;100.00;101924.59;6186469;23;20015;-68
2023/09/27 05:28:07;;;;;;;16.65;15.00;;;;;;;9.98;100.00;101922.03;6183838;23;20111;-68
2023/09/27 05:30:34;;;;;;;18.65;16.85;;;;;;;9.93;100.00;101922.88;6185109;23;20009;-68
2023/09/27 05:33:01;;;;;;;17.00;15.15;;;;;;;10.05;100.00;101921.22;6214356;23;20019;-69
2023/09/27 05:35:26;;;;;;;17.83;16.27;;;;;;;10.14;100.00;101923.06;6213507;23;20004;-68
2023/09/27 05:37:52;;;;;;;15.32;13.93;;;;;;;10.06;100.00;101917.75;6161809;23;20092;-68
2023/09/27 05:40:18;;;;;;;15.05;13.40;;;;;;;9.97;100.00;101917.69;6160971;23;20013;-68
2023/09/27 05:42:43;;;;;;;18.42;16.63;;;;;;;10.10;100.00;101913.44;6160989;23;20461;-68
2023/09/27 05:45:11;;;;;;;20.90;19.00;;;;;;;10.29;100.00;101914.44;6158438;23;20017;-68
2023/09/27 05:47:37;;;;;;;20.15;18.00;;;;;;;10.21;100.00;101913.50;6186019;23;20008;-68
2023/09/27 05:50:04;;;;;;;18.38;16.40;;;;;;;10.22;100.00;101915.25;6186694;23;20009;-68
2023/09/27 05:52:30;;;;;;;17.05;15.52;;;;;;;10.31;100.00;101917.91;6161661;23;20024;-68
2023/09/27 05:54:56;;;;;;;15.65;14.13;;;;;;;10.35;100.00;101906.63;6187318;23;20008;-68
2023/09/27 05:57:24;;;;;;;17.17;15.55;;;;;;;10.45;100.00;101909.31;6187392;23;20326;-68
2023/09/27 05:59:50;;;;;;;15.43;13.93;;;;;;;10.53;100.00;101897.13;6186188;23;20024;-68
2023/09/27 06:02:20;;;;;;;14.93;13.15;;;;;;;10.61;100.00;101900.66;6186497;23;20391;-67
2023/09/27 06:04:46;;;;;;;13.27;12.00;;;;;;;10.78;100.00;101889.41;6163160;23;20393;-68
2023/09/27 06:07:14;;;;;;;14.15;12.70;;;;;;;10.77;100.00;101900.75;6161362;23;20423;-68
2023/09/27 06:09:41;;;;;;;15.50;12.95;;;;;;;10.63;100.00;101888.47;6161885;23;20013;-68
2023/09/27 06:12:07;;;;;;;14.02;12.68;;;;;;;10.74;100.00;101897.22;6186941;23;20002;-69
2023/09/27 06:14:33;;;;;;;16.23;14.52;;;;;;;10.82;100.00;101893.75;6186718;23;20146;-68
2023/09/27 06:16:59;;;;;;;18.08;16.40;;;;;;;10.86;100.00;101898.16;6187718;23;20012;-68
2023/09/27 06:19:25;;;;;;;18.10;16.30;;;;;;;10.88;100.00;101904.28;6161879;23;20009;-69
2023/09/27 06:21:51;;;;;;;16.08;14.40;;;;;;;10.82;100.00;101906.88;6162540;23;20083;-68
2023/09/27 06:24:16;;;;;;;14.55;13.10;;;;;;;10.93;100.00;101897.28;6186992;23;20037;-69
2023/09/27 06:26:41;;;;;;;16.20;14.65;;;;;;;11.07;100.00;101895.59;6161622;23;20091;-69
2023/09/27 06:29:09;;;;;;;17.20;15.40;;;;;;;11.57;100.00;101901.81;6187166;23;20342;-69
2023/09/27 06:31:35;;;;;;;16.55;14.82;;;;;;;12.42;100.00;101907.06;6185987;23;20008;-69
2023/09/27 06:34:00;;;;;;;16.02;13.75;;;;;;;13.91;100.00;101908.94;6187026;23;20005;-70
2023/09/27 06:36:29;;;;;;;12.40;11.20;;;;;;;14.67;100.00;101901.16;6187118;23;20016;-70
2023/09/27 06:38:57;;;;;;;12.63;10.25;;;;;;;15.78;98.03;101902.22;6187157;23;20510;-70
2023/09/27 06:41:23;;;;;;;12.70;10.57;;;;;;;15.69;94.72;101905.91;6186703;23;20008;-70
2023/09/27 06:43:48;;;;;;;11.75;10.52;;;;;;;16.06;93.30;101899.13;6186720;23;20047;-70
2023/09/27 06:46:17;;;;;;;11.52;10.05;;;;;;;16.15;93.31;101896.34;6186531;23;20118;-70
2023/09/27 06:48:43;;;;;;;11.30;10.20;;;;;;;16.62;89.75;101891.91;6187019;23;20087;-70
2023/09/27 06:51:13;;;;;;;13.75;10.90;;;;;;;17.34;87.64;101907.16;6161956;23;20490;-70
2023/09/27 06:53:39;;;;;;;10.88;9.90;;;;;;;19.30;82.36;101901.03;6186467;23;20009;-70
2023/09/27 06:56:05;;;;;;;12.30;10.13;;;;;;;20.23;75.31;101902.38;6161311;23;20009;-71
2023/09/27 06:58:31;;;;;;;11.20;10.10;;;;;;;20.47;71.30;101918.38;6157381;23;20045;-70
2023/09/27 07:00:57;;;;;;;11.63;10.50;;;;;;;18.95;73.74;101918.91;6131729;23;20122;-70
2023/09/27 07:03:25;;;;;;;12.50;11.27;;;;;;;17.90;79.35;101925.28;6157012;23;20308;-70
2023/09/27 07:05:51;;;;;;;13.45;12.02;;;;;;;16.96;84.48;101920.34;6157108;23;20013;-70
2023/09/27 07:08:17;;;;;;;13.52;12.13;;;;;;;16.74;88.55;101914.59;6132388;23;20312;-71
2023/09/27 07:10:44;;;;;;;13.60;12.20;;;;;;;17.13;87.26;101912.03;6131642;23;20013;-71
2023/09/27 07:13:10;;;;;;;12.95;11.65;;;;;;;18.16;82.90;101911.34;6156721;23;20009;-71
2023/09/27 07:15:37;;;;;;;12.63;11.13;;;;;;;18.87;79.23;101908.53;6156478;23;20040;-71
2023/09/27 07:18:03;;;;;;;13.85;12.48;;;;;;;18.18;80.50;101922.78;6157279;23;20013;-71
2023/09/27 07:20:33;;;;;;;15.18;12.23;;;;;;;17.24;83.27;101932.09;6156613;23;20008;-71
2023/09/27 07:22:59;;;;;;;14.13;12.48;;;;;;;16.49;87.29;101935.38;6157376;23;20436;-71
2023/09/27 07:25:25;;;;;;;14.45;13.05;;;;;;;15.87;91.74;101927.66;6156577;23;20020;-71
2023/09/27 07:27:51;;;;;;;15.45;13.95;;;;;;;15.61;95.46;101933.34;6156618;23;20009;-71
2023/09/27 07:30:23;;;;;;;16.35;14.85;;;;;;;15.23;96.91;101925.09;6156598;23;20009;-71
2023/09/27 07:32:50;;;;;;;16.95;15.40;;;;;;;15.02;99.44;101927.09;6157022;23;20016;-71
2023/09/27 07:35:18;;;;;;;16.20;14.90;;;;;;;14.79;100.00;101934.44;6156769;23;20084;-70
2023/09/27 07:37:44;;;;;;;17.67;15.98;;;;;;;14.66;100.00;101941.63;6158517;23;20080;-70
2023/09/27 07:40:12;;;;;;;18.63;16.73;;;;;;;14.69;100.00;101936.31;6134498;23;20057;-70
2023/09/27 07:42:41;;;;;;;18.58;16.73;;;;;;;14.62;100.00;101930.22;6133976;23;20375;-71
2023/09/27 07:45:43;;;;;;;19.70;17.90;;;;;;;14.59;100.00;101917.03;6157947;23;20268;-71
2023/09/27 07:48:00;;;;;;;19.95;18.15;;;;;;;14.72;100.00;101910.78;6160348;23;20416;-70
2023/09/27 07:50:28;;;;;;;18.10;16.58;;;;;;;14.76;100.00;101913.38;6158554;23;20017;-70
2023/09/27 07:52:57;;;;;;;18.83;17.13;;;;;;;14.87;100.00;101907.06;6134662;23;20010;-70
2023/09/27 07:55:23;;;;;;;19.90;17.98;;;;;;;15.27;100.00;101902.13;6134365;23;20096;-70
2023/09/27 07:57:49;;;;;;;20.08;18.27;;;;;;;15.76;100.00;101902.25;6158234;23;20071;-71
2023/09/27 08:00:15;;;;;;;19.75;17.50;;;;;;;15.99;99.19;101908.97;6186861;23;20499;-71
2023/09/27 08:02:45;;;;;;;18.65;16.73;;;;;;;16.12;99.42;101914.91;6164065;23;20008;-71
2023/09/27 08:05:14;;;;;;;18.85;17.02;;;;;;;16.21;97.28;101920.00;6188543;23;20410;-71
2023/09/27 08:07:40;;;;;;;18.17;16.40;;;;;;;16.44;96.98;101921.38;6188109;23;20374;-70
2023/09/27 08:10:08;;;;;;;18.23;16.55;;;;;;;16.56;96.25;101926.41;6188046;23;20011;-70
2023/09/27 08:12:34;;;;;;;18.40;16.52;;;;;;;16.58;96.59;101918.47;6188297;23;20087;-71
2023/09/27 08:15:03;;;;;;;18.48;16.73;;;;;;;16.77;96.69;101919.81;6162825;23;20419;-71
2023/09/27 08:17:29;;;;;;;17.40;15.80;;;;;;;16.69;94.43;101918.22;6163559;23;20021;-71
2023/09/27 08:19:56;;;;;;;18.17;16.65;;;;;;;17.19;94.39;101926.91;6188471;23;20009;-70
2023/09/27 08:22:21;;;;;;;18.85;16.85;;;;;;;17.13;92.18;101927.06;6163533;23;20142;-70
2023/09/27 08:24:48;;;;;;;17.52;15.77;;;;;;;17.10;92.30;101924.47;6188805;23;20043;-70
2023/09/27 08:27:13;;;;;;;18.20;16.58;;;;;;;17.40;92.97;101930.00;6188336;23;20085;-71
2023/09/27 08:29:39;;;;;;;16.23;14.52;;;;;;;18.09;88.56;101946.91;6163058;23;20013;-71
2023/09/27 08:32:06;;;;;;;16.35;14.90;;;;;;;19.52;86.05;101943.75;6188058;23;20013;-71
2023/09/27 08:34:32;;;;;;;15.32;13.93;;;;;;;21.35;77.02;101948.88;6188298;23;20008;-70
2023/09/27 08:36:59;;;;;;;14.15;12.77;;;;;;;21.33;75.03;101954.28;6188341;23;20090;-71
2023/09/27 08:39:26;;;;;;;14.75;13.25;;;;;;;21.56;74.84;101957.84;6188093;23;20099;-70
2023/09/27 08:41:55;;;;;;;14.27;12.73;;;;;;;21.43;74.16;101958.34;6188125;23;20012;-71
2023/09/27 08:44:24;;;;;;;14.05;12.65;;;;;;;21.30;74.16;101951.72;6187809;23;20023;-71
2023/09/27 08:46:50;;;;;;;14.52;13.07;;;;;;;21.29;76.90;101960.66;6188091;23;20020;-69
2023/09/27 08:49:18;;;;;;;14.20;12.80;;;;;;;22.17;73.94;101974.91;6162764;23;20015;-70
2023/09/27 08:51:45;;;;;;;13.82;12.43;;;;;;;22.08;71.36;101976.19;6187898;23;20446;-70
2023/09/27 08:54:16;;;;;;;13.20;11.88;;;;;;;22.14;71.51;101968.78;6188138;23;20005;-70
2023/09/27 08:56:49;;;;;;;13.93;12.40;;;;;;;21.92;71.69;101965.28;6163838;23;20082;-69
2023/09/27 08:59:21;;;;;;;13.45;12.15;;;;;;;21.50;72.74;101960.75;6188272;23;20390;-70
2023/09/27 09:01:47;;;;;;;13.27;12.02;;;;;;;21.23;72.95;101958.22;6188231;23;20423;-69
2023/09/27 09:04:13;;;;;;;12.85;11.65;;;;;;;20.90;72.22;101958.59;6188336;23;20167;-70
2023/09/27 09:06:40;;;;;;;13.02;11.35;;;;;;;20.46;74.02;101953.06;6162976;23;20451;-70
2023/09/27 09:09:13;;;;;;;13.38;11.85;;;;;;;20.29;74.79;101945.69;6188282;23;20016;-71
2023/09/27 09:11:48;;;;;;;13.95;12.60;;;;;;;20.18;76.31;101946.91;6186426;23;20008;-70
2023/09/27 09:14:18;;;;;;;13.90;12.50;;;;;;;20.38;77.91;101946.22;6188051;23;20031;-70
2023/09/27 09:16:51;;;;;;;13.55;12.25;;;;;;;20.25;76.70;101955.56;6163557;23;20012;-70
2023/09/27 09:19:22;;;;;;;13.70;12.30;;;;;;;19.86;77.96;101942.69;6187882;23;20116;-69
2023/09/27 09:22:08;;;;;;;12.43;11.18;;;;;;;20.04;80.64;101942.09;6187908;23;20011;-69
2023/09/27 09:24:43;;;;;;;13.52;11.40;;;;;;;19.66;78.57;101932.69;6187230;23;20081;-69
2023/09/27 09:27:15;;;;;;;11.98;10.30;;;;;;;19.52;79.79;101928.69;6187021;23;20058;-69
2023/09/27 09:29:52;;;;;;;13.30;11.23;;;;;;;19.69;81.90;101924.59;6186978;23;20100;-69
2023/09/27 09:32:20;;;;;;;12.00;10.90;;;;;;;19.49;79.05;101925.25;6187712;23;20012;-69
2023/09/27 09:34:48;;;;;;;12.98;11.73;;;;;;;19.33;80.69;101923.06;6187911;23;20008;-70
2023/09/27 09:37:27;;;;;;;13.50;11.93;;;;;;;19.29;82.37;101924.06;6187340;23;20268;-70
2023/09/27 09:40:05;;;;;;;13.23;11.82;;;;;;;19.26;83.51;101923.31;6187787;23;20419;-69
2023/09/27 09:42:36;;;;;;;12.60;10.32;;;;;;;19.26;78.82;101925.97;6187134;23;20028;-69
2023/09/27 09:45:06;;;;;;;11.50;10.35;;;;;;;19.30;78.25;101922.31;6213902;23;20007;-70
2023/09/27 09:47:35;;;;;;;12.18;10.70;;;;;;;19.19;81.70;101901.38;6185927;23;20009;-70
2023/09/27 09:50:08;;;;;;;13.40;12.10;;;;;;;19.11;81.59;101901.63;6187616;23;20004;-70
2023/09/27 09:52:39;;;;;;;14.38;12.40;;;;;;;19.17;81.73;101903.22;6187715;23;20012;-70
2023/09/27 09:55:11;;;;;;;14.27;13.02;;;;;;;19.10;80.02;101904.31;6187573;23;20007;-70
2023/09/27 09:57:43;;;;;;;13.73;12.52;;;;;;;19.27;83.08;101896.69;6186660;23;20005;-71
2023/09/27 10:00:19;;;;;;;13.90;12.60;;;;;;;19.42;80.53;101884.69;6185764;23;20079;-71
2023/09/27 10:02:49;;;;;;;14.25;12.82;;;;;;;19.50;79.28;101882.66;6164699;23;20087;-71
2023/09/27 10:05:23;;;;;;;13.88;12.63;;;;;;;19.70;81.57;101884.66;6162335;23;20008;-71
2023/09/27 10:07:50;;;;;;;14.30;12.77;;;;;;;19.93;81.42;101875.06;6187373;23;20008;-71
2023/09/27 10:10:20;;;;;;;13.65;12.35;;;;;;;20.32;79.87;101871.91;6162726;23;20394;-71
2023/09/27 10:12:49;;;;;;;12.82;11.55;;;;;;;20.38;75.88;101870.81;6161758;23;20023;-71
2023/09/27 10:15:20;;;;;;;11.68;10.50;;;;;;;20.47;73.54;101864.28;6186576;23;20000;-71
2023/09/27 10:17:46;;;;;;;10.82;9.73;;;;;;;20.42;72.28;101859.13;6162213;23;20513;-71
2023/09/27 10:20:14;;;;;;;11.43;10.20;;;;;;;20.51;73.24;101855.25;6162744;23;20008;-71
2023/09/27 10:22:46;;;;;;;11.85;9.85;;;;;;;20.25;72.79;101857.09;6187406;23;20016;-71
2023/09/27 10:25:24;;;;;;;11.13;9.90;;;;;;;20.20;72.55;101851.94;6187147;23;20016;-71
2023/09/27 10:27:58;;;;;;;11.50;10.30;;;;;;;20.33;72.10;101857.69;6186979;23;20354;-71
2023/09/27 10:30:24;;;;;;;12.35;9.95;;;;;;;20.54;71.28;101861.34;6186598;23;20012;-71
2023/09/27 10:33:15;;;;;;;11.40;9.50;;;;;;;20.81;71.93;101866.56;6162578;23;20038;-71
2023/09/27 10:36:03;;;;;;;10.70;9.18;;;;;;;20.99;71.30;101866.78;6186488;23;20098;-71
2023/09/27 10:38:52;;;;;;;9.75;8.75;;;;;;;21.14;68.79;101875.97;6213982;23;20091;-71
2023/09/27 10:41:38;;;;;;;10.60;8.40;;;;;;;21.09;68.50;101866.38;6174934;23;20009;-71
2023/09/27 10:44:04;;;;;;;9.80;8.80;;;;;;;21.00;71.47;101860.53;6187208;23;20051;-71
2023/09/27 10:46:43;;;;;;;10.90;8.88;;;;;;;20.95;68.92;101860.72;6186425;23;20013;-71
2023/09/27 10:49:09;;;;;;;14.60;9.50;;;;;;;20.97;68.70;101845.53;6187491;23;20091;-71
2023/09/27 10:51:35;;;;;;;9.80;8.85;;;;;;;21.04;70.01;101832.84;6186502;23;20039;-71
2023/09/27 10:54:11;;;;;;;9.65;8.60;;;;;;;21.01;69.46;101816.97;6187309;23;20332;-70
2023/09/27 10:56:41;;;;;;;9.95;8.40;;;;;;;21.16;67.52;101818.13;6161739;23;20094;-71
2023/09/27 10:59:07;;;;;;;;;;;;;;;21.52;66.75;101823.78;6187551;23;20446;-71
2023/09/27 11:01:33;;;;;;;9.05;7.82;;;;;;;21.14;66.77;101822.69;6186087;23;19904;-71
2023/09/27 11:04:00;;;;;;;11.55;8.63;;;;;;;21.30;65.47;101823.78;6162502;23;20005;-71
2023/09/27 11:06:27;;;;;;;10.85;7.93;;;;;;;21.29;66.04;101809.59;6186873;23;20019;-71
2023/09/27 11:09:12;;;;;;;8.82;7.93;;;;;;;21.48;67.41;101813.25;6187179;23;20490;-71
2023/09/27 11:11:39;;;;;;;9.75;8.75;;;;;;;21.33;65.72;101810.31;6186119;23;20008;-71